OSAP/ALP METAR and TAF weather

Enter ICAO airport designator
Station Type Date Time Source
OSAP METAR 2023/12/11 00:00 UTC NOAA

OSAP 110000Z 06010KT 7000 FEW026 12/11 Q1021


Station Type Date Time Source
OSAP Decoded METAR 2023/12/11 00:00 UTC NOAA

Aleppo International Airport, Syria (OSAP) 36-11N 037-12E 384M
Dec 10, 2023 - 07:00 PM EST / 2023.12.11 0000 UTC
Wind: from the ENE (060 degrees) at 12 MPH (10 KT):0
Visibility: 4 mile(s):0
Sky conditions: mostly clear
Temperature: 53 F (12 C)
Dew Point: 51 F (11 C)
Relative Humidity: 93%
Pressure (altimeter): 30.15 in. Hg (1021 hPa)
ob: OSAP 110000Z 06010KT 7000 FEW026 12/11 Q1021
cycle: 0

Station Type Date Time Source
OSAP TAF 2023/12/10 18:54 UTC NOAA

TAF TAF OSAP 101700Z 1018/1118 12008KT 6000 NSC
BECMG 1020/1022 VRB03KT 3000BR NSC
TEMPO 1103/1106 1000FG
BECMG 1108/1110 5000BR FEW030

Example: see airport list